sensor_id;sensor_type;location;lat;lon;timestamp;temperature;humidity
32895;DHT22;19251;49.484;8.260;2023-06-22T00:01:14;25.60;22.40
32895;DHT22;19251;49.484;8.260;2023-06-22T00:06:16;25.50;23.00
32895;DHT22;19251;49.484;8.260;2023-06-22T00:11:18;25.40;23.00
32895;DHT22;19251;49.484;8.260;2023-06-22T00:16:22;25.40;22.90
32895;DHT22;19251;49.484;8.260;2023-06-22T00:21:24;25.40;23.20
32895;DHT22;19251;49.484;8.260;2023-06-22T00:26:26;25.30;23.40
32895;DHT22;19251;49.484;8.260;2023-06-22T00:31:28;25.30;23.40
32895;DHT22;19251;49.484;8.260;2023-06-22T00:36:31;25.30;23.90
32895;DHT22;19251;49.484;8.260;2023-06-22T00:41:33;25.40;24.30
32895;DHT22;19251;49.484;8.260;2023-06-22T00:46:38;25.50;25.00
32895;DHT22;19251;49.484;8.260;2023-06-22T00:51:41;25.40;24.90
32895;DHT22;19251;49.484;8.260;2023-06-22T01:01:50;25.30;25.50
32895;DHT22;19251;49.484;8.260;2023-06-22T01:07:02;25.20;25.20
32895;DHT22;19251;49.484;8.260;2023-06-22T01:12:09;25.10;25.30
32895;DHT22;19251;49.484;8.260;2023-06-22T01:17:13;25.10;26.20
32895;DHT22;19251;49.484;8.260;2023-06-22T01:22:20;25.10;25.90
32895;DHT22;19251;49.484;8.260;2023-06-22T01:27:40;25.00;26.40
32895;DHT22;19251;49.484;8.260;2023-06-22T01:32:48;25.00;26.20
32895;DHT22;19251;49.484;8.260;2023-06-22T01:37:52;24.90;26.40
32895;DHT22;19251;49.484;8.260;2023-06-22T01:42:54;24.80;26.60
32895;DHT22;19251;49.484;8.260;2023-06-22T01:47:57;24.80;26.50
32895;DHT22;19251;49.484;8.260;2023-06-22T01:52:59;24.70;26.80
32895;DHT22;19251;49.484;8.260;2023-06-22T01:58:02;24.60;26.90
32895;DHT22;19251;49.484;8.260;2023-06-22T02:08:17;24.50;26.90
32895;DHT22;19251;49.484;8.260;2023-06-22T02:13:23;24.40;27.10
32895;DHT22;19251;49.484;8.260;2023-06-22T02:18:26;24.30;26.90
32895;DHT22;19251;49.484;8.260;2023-06-22T02:23:28;24.20;27.30
32895;DHT22;19251;49.484;8.260;2023-06-22T02:33:33;24.10;27.40
32895;DHT22;19251;49.484;8.260;2023-06-22T02:38:35;24.10;27.30
32895;DHT22;19251;49.484;8.260;2023-06-22T02:43:38;24.00;28.10
32895;DHT22;19251;49.484;8.260;2023-06-22T02:48:40;23.90;27.50
32895;DHT22;19251;49.484;8.260;2023-06-22T02:53:42;23.90;27.70
32895;DHT22;19251;49.484;8.260;2023-06-22T02:58:47;23.80;27.60
32895;DHT22;19251;49.484;8.260;2023-06-22T03:03:50;23.70;27.80
32895;DHT22;19251;49.484;8.260;2023-06-22T03:08:52;23.70;28.50
32895;DHT22;19251;49.484;8.260;2023-06-22T03:18:57;23.70;28.00
32895;DHT22;19251;49.484;8.260;2023-06-22T03:23:59;23.60;28.10
32895;DHT22;19251;49.484;8.260;2023-06-22T03:29:01;23.60;28.60
32895;DHT22;19251;49.484;8.260;2023-06-22T03:34:04;23.60;28.10
32895;DHT22;19251;49.484;8.260;2023-06-22T03:39:07;23.60;28.20
32895;DHT22;19251;49.484;8.260;2023-06-22T03:44:10;23.50;28.50
32895;DHT22;19251;49.484;8.260;2023-06-22T03:49:14;23.50;29.00
32895;DHT22;19251;49.484;8.260;2023-06-22T03:54:16;23.50;29.20
32895;DHT22;19251;49.484;8.260;2023-06-22T03:59:18;23.40;28.70
32895;DHT22;19251;49.484;8.260;2023-06-22T04:04:20;23.50;28.80
32895;DHT22;19251;49.484;8.260;2023-06-22T04:09:23;23.50;28.80
32895;DHT22;19251;49.484;8.260;2023-06-22T04:14:25;23.40;28.90
32895;DHT22;19251;49.484;8.260;2023-06-22T04:24:29;23.30;28.60
32895;DHT22;19251;49.484;8.260;2023-06-22T04:29:32;23.20;28.80
32895;DHT22;19251;49.484;8.260;2023-06-22T04:34:34;23.20;29.20
32895;DHT22;19251;49.484;8.260;2023-06-22T04:39:36;23.10;29.20
32895;DHT22;19251;49.484;8.260;2023-06-22T04:44:38;23.10;29.30
32895;DHT22;19251;49.484;8.260;2023-06-22T04:49:41;23.10;30.00
32895;DHT22;19251;49.484;8.260;2023-06-22T04:54:45;23.10;29.90
32895;DHT22;19251;49.484;8.260;2023-06-22T04:59:49;23.10;30.50
32895;DHT22;19251;49.484;8.260;2023-06-22T05:09:54;23.50;30.60
32895;DHT22;19251;49.484;8.260;2023-06-22T05:14:57;23.60;30.80
32895;DHT22;19251;49.484;8.260;2023-06-22T05:19:59;23.60;31.50
32895;DHT22;19251;49.484;8.260;2023-06-22T05:25:01;23.90;30.90
32895;DHT22;19251;49.484;8.260;2023-06-22T05:30:03;24.10;31.40
32895;DHT22;19251;49.484;8.260;2023-06-22T05:35:06;24.30;31.40
32895;DHT22;19251;49.484;8.260;2023-06-22T05:40:08;24.30;31.30
32895;DHT22;19251;49.484;8.260;2023-06-22T05:45:11;24.60;31.10
32895;DHT22;19251;49.484;8.260;2023-06-22T05:50:13;24.80;31.30
32895;DHT22;19251;49.484;8.260;2023-06-22T05:55:16;25.00;31.10
32895;DHT22;19251;49.484;8.260;2023-06-22T06:00:20;25.10;31.10
32895;DHT22;19251;49.484;8.260;2023-06-22T06:05:24;25.30;31.00
32895;DHT22;19251;49.484;8.260;2023-06-22T06:10:28;25.50;30.70
32895;DHT22;19251;49.484;8.260;2023-06-22T06:15:33;25.60;30.50
32895;DHT22;19251;49.484;8.260;2023-06-22T06:20:36;25.80;31.00
32895;DHT22;19251;49.484;8.260;2023-06-22T06:25:38;26.10;30.00
32895;DHT22;19251;49.484;8.260;2023-06-22T06:30:40;26.30;29.80
32895;DHT22;19251;49.484;8.260;2023-06-22T06:35:43;26.70;28.90
32895;DHT22;19251;49.484;8.260;2023-06-22T06:40:45;26.90;28.90
32895;DHT22;19251;49.484;8.260;2023-06-22T06:45:47;27.00;28.60
32895;DHT22;19251;49.484;8.260;2023-06-22T06:50:53;27.40;27.50
32895;DHT22;19251;49.484;8.260;2023-06-22T06:55:56;27.40;27.60
32895;DHT22;19251;49.484;8.260;2023-06-22T07:00:58;27.70;27.00
32895;DHT22;19251;49.484;8.260;2023-06-22T07:06:00;27.90;26.40
32895;DHT22;19251;49.484;8.260;2023-06-22T07:11:02;28.10;24.90
32895;DHT22;19251;49.484;8.260;2023-06-22T07:16:04;28.10;25.10
32895;DHT22;19251;49.484;8.260;2023-06-22T07:21:06;28.30;25.20
32895;DHT22;19251;49.484;8.260;2023-06-22T07:26:09;28.40;24.90
32895;DHT22;19251;49.484;8.260;2023-06-22T07:31:11;28.50;24.60
32895;DHT22;19251;49.484;8.260;2023-06-22T07:36:13;28.60;23.90
32895;DHT22;19251;49.484;8.260;2023-06-22T07:41:15;28.80;23.20
32895;DHT22;19251;49.484;8.260;2023-06-22T07:46:18;28.90;23.90
32895;DHT22;19251;49.484;8.260;2023-06-22T07:51:20;29.20;22.40
32895;DHT22;19251;49.484;8.260;2023-06-22T08:01:24;29.40;22.10
32895;DHT22;19251;49.484;8.260;2023-06-22T08:06:28;29.60;22.10
32895;DHT22;19251;49.484;8.260;2023-06-22T08:11:31;30.00;20.90
32895;DHT22;19251;49.484;8.260;2023-06-22T08:16:33;30.20;20.40
32895;DHT22;19251;49.484;8.260;2023-06-22T08:21:35;30.30;19.70
32895;DHT22;19251;49.484;8.260;2023-06-22T08:31:40;30.60;18.60
32895;DHT22;19251;49.484;8.260;2023-06-22T08:36:42;30.80;18.20
32895;DHT22;19251;49.484;8.260;2023-06-22T08:41:45;30.90;17.30
32895;DHT22;19251;49.484;8.260;2023-06-22T08:46:48;31.00;16.50
32895;DHT22;19251;49.484;8.260;2023-06-22T08:51:53;31.10;17.00
32895;DHT22;19251;49.484;8.260;2023-06-22T08:56:58;31.20;16.60
32895;DHT22;19251;49.484;8.260;2023-06-22T09:02:00;31.40;16.70
32895;DHT22;19251;49.484;8.260;2023-06-22T09:07:03;31.50;15.90
32895;DHT22;19251;49.484;8.260;2023-06-22T09:12:06;31.60;15.90
32895;DHT22;19251;49.484;8.260;2023-06-22T09:17:08;31.70;15.90
32895;DHT22;19251;49.484;8.260;2023-06-22T09:22:10;31.80;16.00
32895;DHT22;19251;49.484;8.260;2023-06-22T09:27:12;32.10;14.90
32895;DHT22;19251;49.484;8.260;2023-06-22T09:32:15;32.30;14.60
32895;DHT22;19251;49.484;8.260;2023-06-22T09:37:17;32.50;13.20
32895;DHT22;19251;49.484;8.260;2023-06-22T09:42:19;32.70;13.20
32895;DHT22;19251;49.484;8.260;2023-06-22T09:47:22;32.90;12.60
32895;DHT22;19251;49.484;8.260;2023-06-22T09:52:25;33.10;12.00
32895;DHT22;19251;49.484;8.260;2023-06-22T09:57:44;33.20;11.20
32895;DHT22;19251;49.484;8.260;2023-06-22T10:02:46;33.40;10.80
32895;DHT22;19251;49.484;8.260;2023-06-22T10:07:49;33.60;9.60
32895;DHT22;19251;49.484;8.260;2023-06-22T10:13:02;33.80;9.20
32895;DHT22;19251;49.484;8.260;2023-06-22T10:18:04;34.10;8.60
32895;DHT22;19251;49.484;8.260;2023-06-22T10:23:07;34.30;8.10
32895;DHT22;19251;49.484;8.260;2023-06-22T10:28:09;34.50;7.60
32895;DHT22;19251;49.484;8.260;2023-06-22T10:33:12;34.70;6.90
32895;DHT22;19251;49.484;8.260;2023-06-22T10:38:14;34.90;6.60
32895;DHT22;19251;49.484;8.260;2023-06-22T10:43:16;35.20;6.50
32895;DHT22;19251;49.484;8.260;2023-06-22T10:48:18;35.30;6.20
32895;DHT22;19251;49.484;8.260;2023-06-22T10:53:21;35.60;6.00
32895;DHT22;19251;49.484;8.260;2023-06-22T11:03:26;35.90;5.10
32895;DHT22;19251;49.484;8.260;2023-06-22T11:08:29;36.00;4.80
32895;DHT22;19251;49.484;8.260;2023-06-22T11:18:34;36.00;4.30
32895;DHT22;19251;49.484;8.260;2023-06-22T11:23:36;36.20;4.10
32895;DHT22;19251;49.484;8.260;2023-06-22T11:28:38;36.40;3.90
32895;DHT22;19251;49.484;8.260;2023-06-22T11:33:40;36.40;3.80
32895;DHT22;19251;49.484;8.260;2023-06-22T11:43:45;36.60;3.50
32895;DHT22;19251;49.484;8.260;2023-06-22T11:48:47;36.70;3.30
32895;DHT22;19251;49.484;8.260;2023-06-22T11:53:50;36.90;3.10
32895;DHT22;19251;49.484;8.260;2023-06-22T11:58:52;36.90;2.30
32895;DHT22;19251;49.484;8.260;2023-06-22T12:03:56;36.90;2.30
32895;DHT22;19251;49.484;8.260;2023-06-22T12:08:58;36.90;1.80
32895;DHT22;19251;49.484;8.260;2023-06-22T12:14:00;36.90;2.10
32895;DHT22;19251;49.484;8.260;2023-06-22T12:19:04;37.10;2.40
32895;DHT22;19251;49.484;8.260;2023-06-22T12:24:06;37.30;2.20
32895;DHT22;19251;49.484;8.260;2023-06-22T12:29:08;37.40;2.20
32895;DHT22;19251;49.484;8.260;2023-06-22T12:34:10;37.90;2.10
32895;DHT22;19251;49.484;8.260;2023-06-22T12:39:13;38.20;1.10
32895;DHT22;19251;49.484;8.260;2023-06-22T12:44:15;38.50;1.00
32895;DHT22;19251;49.484;8.260;2023-06-22T12:49:17;38.60;1.00
32895;DHT22;19251;49.484;8.260;2023-06-22T12:59:22;38.80;1.00
32895;DHT22;19251;49.484;8.260;2023-06-22T13:04:24;38.90;1.00
32895;DHT22;19251;49.484;8.260;2023-06-22T13:09:26;38.80;1.00
32895;DHT22;19251;49.484;8.260;2023-06-22T13:14:28;38.90;1.00
32895;DHT22;19251;49.484;8.260;2023-06-22T13:19:31;38.90;1.00
32895;DHT22;19251;49.484;8.260;2023-06-22T13:24:34;38.90;1.00
32895;DHT22;19251;49.484;8.260;2023-06-22T13:29:36;38.90;1.00
32895;DHT22;19251;49.484;8.260;2023-06-22T13:34:38;39.00;1.00
32895;DHT22;19251;49.484;8.260;2023-06-22T13:39:41;39.60;1.00
32895;DHT22;19251;49.484;8.260;2023-06-22T13:44:43;40.00;1.00
32895;DHT22;19251;49.484;8.260;2023-06-22T13:49:45;40.10;1.00
32895;DHT22;19251;49.484;8.260;2023-06-22T13:54:47;40.80;1.00
32895;DHT22;19251;49.484;8.260;2023-06-22T13:59:49;40.80;1.00
32895;DHT22;19251;49.484;8.260;2023-06-22T14:04:52;40.70;1.00
32895;DHT22;19251;49.484;8.260;2023-06-22T14:09:54;40.40;1.00
32895;DHT22;19251;49.484;8.260;2023-06-22T14:14:56;39.80;1.00
32895;DHT22;19251;49.484;8.260;2023-06-22T14:19:59;39.40;1.00
32895;DHT22;19251;49.484;8.260;2023-06-22T14:25:02;38.50;1.00
32895;DHT22;19251;49.484;8.260;2023-06-22T14:30:05;38.20;1.00
32895;DHT22;19251;49.484;8.260;2023-06-22T14:35:08;38.00;1.00
32895;DHT22;19251;49.484;8.260;2023-06-22T14:40:11;38.10;1.00
32895;DHT22;19251;49.484;8.260;2023-06-22T14:45:13;38.30;1.00
32895;DHT22;19251;49.484;8.260;2023-06-22T14:55:19;38.00;1.00
32895;DHT22;19251;49.484;8.260;2023-06-22T15:00:21;37.90;1.00
32895;DHT22;19251;49.484;8.260;2023-06-22T15:05:23;38.00;1.00
32895;DHT22;19251;49.484;8.260;2023-06-22T15:10:26;38.40;1.00
32895;DHT22;19251;49.484;8.260;2023-06-22T15:15:28;38.80;1.00
32895;DHT22;19251;49.484;8.260;2023-06-22T15:20:31;38.90;1.00
32895;DHT22;19251;49.484;8.260;2023-06-22T15:25:33;38.70;1.00
32895;DHT22;19251;49.484;8.260;2023-06-22T15:30:35;38.10;1.00
32895;DHT22;19251;49.484;8.260;2023-06-22T15:35:38;37.40;1.00
32895;DHT22;19251;49.484;8.260;2023-06-22T15:40:40;36.90;1.00
32895;DHT22;19251;49.484;8.260;2023-06-22T15:45:43;36.20;2.50
32895;DHT22;19251;49.484;8.260;2023-06-22T15:50:45;36.00;2.30
32895;DHT22;19251;49.484;8.260;2023-06-22T15:55:47;35.70;3.20
32895;DHT22;19251;49.484;8.260;2023-06-22T16:00:49;35.70;4.90
32895;DHT22;19251;49.484;8.260;2023-06-22T16:05:54;36.30;5.30
32895;DHT22;19251;49.484;8.260;2023-06-22T16:10:57;37.30;4.10
32895;DHT22;19251;49.484;8.260;2023-06-22T16:15:59;37.70;2.70
32895;DHT22;19251;49.484;8.260;2023-06-22T16:21:01;37.60;1.90
32895;DHT22;19251;49.484;8.260;2023-06-22T16:26:07;37.10;1.10
32895;DHT22;19251;49.484;8.260;2023-06-22T16:31:09;36.10;1.00
32895;DHT22;19251;49.484;8.260;2023-06-22T16:36:12;34.50;2.50
32895;DHT22;19251;49.484;8.260;2023-06-22T16:41:15;33.50;3.20
32895;DHT22;19251;49.484;8.260;2023-06-22T16:46:17;32.60;5.20
32895;DHT22;19251;49.484;8.260;2023-06-22T16:51:19;31.90;6.20
32895;DHT22;19251;49.484;8.260;2023-06-22T16:56:28;31.80;6.50
32895;DHT22;19251;49.484;8.260;2023-06-22T17:01:32;32.70;8.50
32895;DHT22;19251;49.484;8.260;2023-06-22T17:06:41;34.00;7.20
32895;DHT22;19251;49.484;8.260;2023-06-22T17:11:43;35.00;5.70
32895;DHT22;19251;49.484;8.260;2023-06-22T17:16:47;35.70;4.50
32895;DHT22;19251;49.484;8.260;2023-06-22T17:21:50;36.00;4.40
32895;DHT22;19251;49.484;8.260;2023-06-22T17:26:54;35.80;2.30
32895;DHT22;19251;49.484;8.260;2023-06-22T17:31:57;35.50;2.10
32895;DHT22;19251;49.484;8.260;2023-06-22T17:37:01;34.90;1.50
32895;DHT22;19251;49.484;8.260;2023-06-22T17:42:06;34.60;1.50
32895;DHT22;19251;49.484;8.260;2023-06-22T17:47:09;34.40;1.70
32895;DHT22;19251;49.484;8.260;2023-06-22T17:57:20;33.70;3.30
32895;DHT22;19251;49.484;8.260;2023-06-22T18:02:25;33.50;3.60
32895;DHT22;19251;49.484;8.260;2023-06-22T18:07:29;33.40;3.60
32895;DHT22;19251;49.484;8.260;2023-06-22T18:17:36;33.00;3.90
32895;DHT22;19251;49.484;8.260;2023-06-22T18:22:39;32.90;4.10
32895;DHT22;19251;49.484;8.260;2023-06-22T18:27:43;32.70;4.50
32895;DHT22;19251;49.484;8.260;2023-06-22T18:32:45;32.50;4.50
32895;DHT22;19251;49.484;8.260;2023-06-22T18:37:48;32.30;5.50
32895;DHT22;19251;49.484;8.260;2023-06-22T18:42:58;32.10;5.40
32895;DHT22;19251;49.484;8.260;2023-06-22T18:48:03;32.00;5.90
32895;DHT22;19251;49.484;8.260;2023-06-22T18:53:11;31.80;6.20
32895;DHT22;19251;49.484;8.260;2023-06-22T18:58:23;31.60;6.40
32895;DHT22;19251;49.484;8.260;2023-06-22T19:03:30;31.40;7.10
32895;DHT22;19251;49.484;8.260;2023-06-22T19:14:22;30.80;8.50
32895;DHT22;19251;49.484;8.260;2023-06-22T19:19:24;30.50;8.60
32895;DHT22;19251;49.484;8.260;2023-06-22T19:24:31;30.30;9.40
32895;DHT22;19251;49.484;8.260;2023-06-22T19:29:34;30.10;9.30
32895;DHT22;19251;49.484;8.260;2023-06-22T19:34:45;29.80;9.00
32895;DHT22;19251;49.484;8.260;2023-06-22T19:39:51;29.60;9.50
32895;DHT22;19251;49.484;8.260;2023-06-22T19:44:57;29.40;9.80
32895;DHT22;19251;49.484;8.260;2023-06-22T19:50:01;29.00;11.00
32895;DHT22;19251;49.484;8.260;2023-06-22T19:55:07;28.70;10.80
32895;DHT22;19251;49.484;8.260;2023-06-22T20:00:10;28.20;11.80
32895;DHT22;19251;49.484;8.260;2023-06-22T20:05:15;28.10;12.10
32895;DHT22;19251;49.484;8.260;2023-06-22T20:10:20;28.00;12.00
32895;DHT22;19251;49.484;8.260;2023-06-22T20:15:26;27.70;12.70
32895;DHT22;19251;49.484;8.260;2023-06-22T20:20:31;27.70;13.00
32895;DHT22;19251;49.484;8.260;2023-06-22T20:25:38;27.70;13.20
32895;DHT22;19251;49.484;8.260;2023-06-22T20:35:44;27.60;13.30
32895;DHT22;19251;49.484;8.260;2023-06-22T20:40:50;27.40;13.40
32895;DHT22;19251;49.484;8.260;2023-06-22T20:45:54;27.20;13.30
32895;DHT22;19251;49.484;8.260;2023-06-22T20:50:56;27.00;14.10
32895;DHT22;19251;49.484;8.260;2023-06-22T20:55:59;26.90;14.50
32895;DHT22;19251;49.484;8.260;2023-06-22T21:01:01;26.80;14.50
32895;DHT22;19251;49.484;8.260;2023-06-22T21:06:03;26.80;14.30
32895;DHT22;19251;49.484;8.260;2023-06-22T21:11:05;26.70;14.60
32895;DHT22;19251;49.484;8.260;2023-06-22T21:16:08;26.80;14.70
32895;DHT22;19251;49.484;8.260;2023-06-22T21:21:10;26.80;14.50
32895;DHT22;19251;49.484;8.260;2023-06-22T21:26:12;26.80;14.50
32895;DHT22;19251;49.484;8.260;2023-06-22T21:31:15;26.80;14.50
32895;DHT22;19251;49.484;8.260;2023-06-22T21:36:17;26.80;14.60
32895;DHT22;19251;49.484;8.260;2023-06-22T21:41:19;26.70;14.40
32895;DHT22;19251;49.484;8.260;2023-06-22T21:46:21;26.60;14.80
32895;DHT22;19251;49.484;8.260;2023-06-22T21:51:24;26.50;15.10
32895;DHT22;19251;49.484;8.260;2023-06-22T22:01:28;26.40;15.20
32895;DHT22;19251;49.484;8.260;2023-06-22T22:06:31;26.40;15.60
32895;DHT22;19251;49.484;8.260;2023-06-22T22:11:33;26.30;15.50
32895;DHT22;19251;49.484;8.260;2023-06-22T22:16:35;26.30;15.80
32895;DHT22;19251;49.484;8.260;2023-06-22T22:21:37;26.20;16.30
32895;DHT22;19251;49.484;8.260;2023-06-22T22:36:44;26.00;16.50
32895;DHT22;19251;49.484;8.260;2023-06-22T22:41:46;26.00;16.70
32895;DHT22;19251;49.484;8.260;2023-06-22T22:46:48;25.90;16.40
32895;DHT22;19251;49.484;8.260;2023-06-22T22:51:51;25.90;16.50
32895;DHT22;19251;49.484;8.260;2023-06-22T22:56:53;25.90;16.40
32895;DHT22;19251;49.484;8.260;2023-06-22T23:01:55;25.80;16.10
32895;DHT22;19251;49.484;8.260;2023-06-22T23:06:57;25.70;16.00
32895;DHT22;19251;49.484;8.260;2023-06-22T23:11:59;25.70;16.10
32895;DHT22;19251;49.484;8.260;2023-06-22T23:17:01;25.50;16.00
32895;DHT22;19251;49.484;8.260;2023-06-22T23:22:05;25.40;16.10
32895;DHT22;19251;49.484;8.260;2023-06-22T23:27:08;25.40;16.20
32895;DHT22;19251;49.484;8.260;2023-06-22T23:32:11;25.30;16.30
32895;DHT22;19251;49.484;8.260;2023-06-22T23:37:13;25.20;16.40
32895;DHT22;19251;49.484;8.260;2023-06-22T23:42:15;25.10;16.70
32895;DHT22;19251;49.484;8.260;2023-06-22T23:47:18;25.00;16.70
32895;DHT22;19251;49.484;8.260;2023-06-22T23:52:20;24.90;16.70
32895;DHT22;19251;49.484;8.260;2023-06-22T23:57:22;24.80;16.80
